Time;durP1;ratioP1;P1;durP2;ratioP2;P2;SDS_P1;SDS_P2;PMS_P1;PMS_P2;Temp;Humidity;BMP_temperature;BMP_pressure;BME280_temperature;BME280_humidity;BME280_pressure;Samples;Min_cycle;Max_cycle;Signal;HPM_P1;HPM_P2
2023/12/01 00:00:57;;;;;;;59.75;25.95;;;0.90;99.90;;;;;;5014123;28;20246;-81
2023/12/01 00:03:22;;;;;;;58.45;24.52;;;0.90;99.90;;;;;;5009959;28;20071;-81
2023/12/01 00:05:48;;;;;;;62.05;25.48;;;0.70;99.90;;;;;;5020176;28;20091;-81
2023/12/01 00:08:14;;;;;;;60.75;25.77;;;0.90;99.90;;;;;;4999480;28;20511;-81
2023/12/01 00:10:39;;;;;;;58.78;24.88;;;0.90;99.90;;;;;;5007580;28;20076;-81
2023/12/01 00:13:05;;;;;;;55.08;24.27;;;0.90;99.90;;;;;;5024773;28;20150;-81
2023/12/01 00:15:31;;;;;;;52.33;23.55;;;0.70;99.90;;;;;;5010145;28;20131;-80
2023/12/01 00:17:57;;;;;;;49.35;22.60;;;0.60;99.90;;;;;;5010745;28;20064;-80
2023/12/01 00:20:22;;;;;;;51.35;22.95;;;0.70;99.90;;;;;;5018803;28;20052;-81
2023/12/01 00:22:48;;;;;;;43.35;21.35;;;0.60;99.90;;;;;;5008503;28;20515;-80
2023/12/01 00:25:14;;;;;;;43.28;20.63;;;0.50;99.90;;;;;;5021599;28;20397;-80
2023/12/01 00:27:39;;;;;;;43.08;20.48;;;0.60;99.90;;;;;;5005000;28;20399;-80
2023/12/01 00:30:06;;;;;;;43.03;20.63;;;0.40;99.90;;;;;;5024923;28;20127;-80
2023/12/01 00:32:32;;;;;;;42.38;20.70;;;0.40;99.90;;;;;;5005676;28;20037;-80
2023/12/01 00:34:58;;;;;;;42.53;20.95;;;0.60;99.90;;;;;;5017743;28;20549;-80
2023/12/01 00:37:24;;;;;;;38.88;20.38;;;0.60;99.90;;;;;;4998206;28;20038;-80
2023/12/01 00:39:49;;;;;;;38.03;20.33;;;0.40;99.90;;;;;;5041523;28;20707;-80
2023/12/01 00:42:15;;;;;;;43.88;20.33;;;0.30;99.90;;;;;;5015782;28;20320;-80
2023/12/01 00:44:41;;;;;;;41.42;20.08;;;0.40;99.90;;;;;;5022376;28;20033;-81
2023/12/01 00:47:08;;;;;;;42.65;20.80;;;0.30;99.90;;;;;;5026093;28;20120;-80
2023/12/01 00:49:33;;;;;;;41.88;20.45;;;0.40;99.90;;;;;;5025839;28;20029;-81
2023/12/01 00:51:59;;;;;;;39.47;20.48;;;0.50;99.90;;;;;;4964483;28;20396;-80
2023/12/01 00:54:25;;;;;;;38.15;19.80;;;0.30;99.90;;;;;;5000278;28;20140;-80
2023/12/01 00:56:50;;;;;;;36.42;18.30;;;0.30;99.90;;;;;;5011462;28;20054;-80
2023/12/01 00:59:16;;;;;;;37.10;20.70;;;0.50;99.90;;;;;;4992580;28;20343;-80
2023/12/01 01:01:42;;;;;;;37.60;20.58;;;0.40;99.90;;;;;;5016001;28;20456;-80
2023/12/01 01:04:08;;;;;;;43.67;21.13;;;0.20;99.90;;;;;;5026278;28;20155;-80
2023/12/01 01:06:33;;;;;;;38.15;19.67;;;0.40;99.90;;;;;;5024904;28;20432;-80
2023/12/01 01:08:59;;;;;;;36.80;19.88;;;0.30;99.90;;;;;;5015487;28;20552;-80
2023/12/01 01:11:25;;;;;;;37.28;19.42;;;0.20;99.90;;;;;;5012313;28;20430;-80
2023/12/01 01:13:51;;;;;;;37.42;20.52;;;0.10;99.90;;;;;;5040066;28;20560;-80
2023/12/01 01:16:17;;;;;;;35.38;20.13;;;0.10;99.90;;;;;;5013081;28;20492;-80
2023/12/01 01:18:42;;;;;;;40.65;22.73;;;0.10;99.90;;;;;;5038922;28;20254;-80
2023/12/01 01:21:09;;;;;;;37.95;22.17;;;0.30;99.90;;;;;;5007736;28;20065;-80
2023/12/01 01:23:35;;;;;;;40.08;21.52;;;0.10;99.90;;;;;;5023378;28;20084;-80
2023/12/01 01:26:02;;;;;;;34.42;20.98;;;0.20;99.90;;;;;;5020680;28;20041;-80
2023/12/01 01:28:28;;;;;;;38.65;22.33;;;0.20;99.90;;;;;;5040425;28;20064;-79
2023/12/01 01:30:54;;;;;;;38.97;21.98;;;0.10;99.90;;;;;;5023587;28;20040;-80
2023/12/01 01:33:20;;;;;;;39.45;22.75;;;-0.10;99.90;;;;;;5002523;28;20520;-80
2023/12/01 01:35:46;;;;;;;40.38;23.85;;;-0.10;99.90;;;;;;5009614;28;20045;-80
2023/12/01 01:38:11;;;;;;;43.83;24.00;;;-0.30;99.90;;;;;;5006862;28;20194;-80
2023/12/01 01:40:37;;;;;;;45.67;25.23;;;-0.10;99.90;;;;;;5005270;28;20064;-80
2023/12/01 01:43:03;;;;;;;42.17;25.20;;;-0.10;99.90;;;;;;4999400;28;20045;-79
2023/12/01 01:45:28;;;;;;;42.80;23.20;;;0.00;99.90;;;;;;5053855;28;20102;-80
2023/12/01 01:47:54;;;;;;;41.30;23.88;;;-0.20;99.90;;;;;;5021830;28;20546;-79
2023/12/01 01:50:22;;;;;;;45.40;25.15;;;-0.20;99.90;;;;;;5022228;28;20123;-80
2023/12/01 01:52:50;;;;;;;44.20;25.15;;;-0.20;99.90;;;;;;5000900;28;20044;-80
2023/12/01 01:55:16;;;;;;;43.78;23.67;;;-0.30;99.90;;;;;;5024324;28;20049;-80
2023/12/01 01:57:46;;;;;;;43.08;23.95;;;-0.30;99.90;;;;;;5021314;28;20044;-80
2023/12/01 02:00:18;;;;;;;44.10;24.23;;;-0.30;99.90;;;;;;5020769;28;20395;-80
2023/12/01 02:02:46;;;;;;;46.70;24.30;;;-0.60;99.90;;;;;;5007620;28;20051;-80
2023/12/01 02:05:14;;;;;;;35.90;21.70;;;-0.30;99.90;;;;;;5006842;28;20051;-80
2023/12/01 02:07:41;;;;;;;37.22;21.25;;;-0.30;99.90;;;;;;5004928;28;20093;-80
2023/12/01 02:10:15;;;;;;;40.03;22.65;;;-0.50;99.90;;;;;;5019176;28;20108;-80
2023/12/01 02:12:42;;;;;;;39.10;22.80;;;-0.40;99.90;;;;;;5019270;28;20041;-80
2023/12/01 02:15:10;;;;;;;45.20;23.73;;;-0.40;99.90;;;;;;4996544;28;20294;-80
2023/12/01 02:17:38;;;;;;;45.22;24.60;;;-0.70;99.90;;;;;;5020069;28;20045;-80
2023/12/01 02:20:06;;;;;;;40.67;22.48;;;-0.40;99.90;;;;;;5019989;28;20056;-80
2023/12/01 02:22:33;;;;;;;39.10;22.25;;;-0.60;99.90;;;;;;5021028;28;20423;-81
2023/12/01 02:24:59;;;;;;;41.40;22.75;;;-0.60;99.90;;;;;;5007320;28;20056;-80
2023/12/01 02:27:25;;;;;;;45.55;22.33;;;-0.80;99.90;;;;;;5005936;28;20036;-80
2023/12/01 02:29:50;;;;;;;43.05;22.98;;;-0.60;99.90;;;;;;5000703;28;20033;-80
2023/12/01 02:32:16;;;;;;;42.47;23.58;;;-0.60;99.90;;;;;;5021495;28;20041;-80
2023/12/01 02:34:45;;;;;;;42.45;23.38;;;-0.60;99.90;;;;;;4996791;28;20495;-80
2023/12/01 02:37:11;;;;;;;44.17;24.33;;;-0.60;99.90;;;;;;5003617;28;20665;-80
2023/12/01 02:39:36;;;;;;;45.95;23.60;;;-0.70;99.90;;;;;;4999564;28;20052;-81
2023/12/01 02:42:02;;;;;;;41.30;22.80;;;-0.60;99.90;;;;;;5007735;28;20058;-81
2023/12/01 02:44:28;;;;;;;45.35;23.85;;;-0.50;99.90;;;;;;5035348;28;20582;-80
2023/12/01 02:46:54;;;;;;;46.05;23.20;;;-0.60;99.90;;;;;;5000675;28;20037;-81
2023/12/01 02:49:19;;;;;;;44.47;22.95;;;-0.80;99.90;;;;;;5022687;28;20037;-80
2023/12/01 02:51:45;;;;;;;41.42;22.40;;;-0.70;99.90;;;;;;5009894;28;20511;-80
2023/12/01 02:54:11;;;;;;;42.47;22.15;;;-0.80;99.90;;;;;;5019981;28;20098;-81
2023/12/01 02:56:36;;;;;;;49.13;25.10;;;-0.70;99.90;;;;;;5004639;28;20055;-81
2023/12/01 02:59:02;;;;;;;47.47;24.42;;;-0.80;99.90;;;;;;5018703;28;20059;-80
2023/12/01 03:01:28;;;;;;;45.97;23.85;;;-1.10;99.90;;;;;;5022868;28;20052;-80
2023/12/01 03:03:53;;;;;;;49.55;24.73;;;-1.00;99.90;;;;;;5019864;28;20140;-80
2023/12/01 03:06:19;;;;;;;44.53;22.75;;;-0.70;99.90;;;;;;5023445;28;20280;-81
2023/12/01 03:08:46;;;;;;;51.33;24.05;;;-1.00;99.90;;;;;;4998781;28;20114;-80
2023/12/01 03:11:11;;;;;;;45.70;22.98;;;-1.00;99.90;;;;;;5006007;28;20033;-80
2023/12/01 03:13:37;;;;;;;45.50;22.35;;;-1.00;99.90;;;;;;4996206;28;20109;-80
2023/12/01 03:16:06;;;;;;;47.80;23.50;;;-0.90;99.90;;;;;;5003270;28;20036;-80
2023/12/01 03:18:32;;;;;;;46.88;23.75;;;-1.00;99.90;;;;;;5056005;28;20049;-80
2023/12/01 03:20:58;;;;;;;48.88;24.40;;;-0.80;99.90;;;;;;5005099;28;20218;-80
2023/12/01 03:23:24;;;;;;;45.75;22.33;;;-1.10;99.90;;;;;;5017480;28;20047;-80
2023/12/01 03:25:49;;;;;;;46.53;24.05;;;-1.20;99.90;;;;;;5001538;28;20458;-80
2023/12/01 03:28:15;;;;;;;44.85;23.13;;;-1.10;99.90;;;;;;5003551;28;20044;-80
2023/12/01 03:30:41;;;;;;;49.33;25.58;;;-1.20;99.90;;;;;;5001910;28;20047;-80
2023/12/01 03:33:06;;;;;;;45.67;22.73;;;-1.30;99.90;;;;;;5022960;28;20043;-80
2023/12/01 03:35:32;;;;;;;48.35;23.95;;;-1.40;99.90;;;;;;5002400;28;20042;-80
2023/12/01 03:37:58;;;;;;;49.00;23.27;;;-1.40;99.90;;;;;;4996285;28;20132;-80
2023/12/01 03:40:25;;;;;;;47.92;23.40;;;-1.50;99.90;;;;;;5012537;28;20154;-80
2023/12/01 03:42:51;;;;;;;46.20;23.48;;;-1.60;99.90;;;;;;4993860;28;20066;-80
2023/12/01 03:45:17;;;;;;;44.72;23.33;;;-1.60;99.90;;;;;;5001446;28;20179;-80
2023/12/01 03:47:45;;;;;;;47.45;23.25;;;-1.60;99.90;;;;;;5010742;28;20041;-79
2023/12/01 03:50:11;;;;;;;52.20;24.63;;;-1.80;99.90;;;;;;5025054;28;20475;-80
2023/12/01 03:52:49;;;;;;;48.50;23.80;;;-1.70;99.90;;;;;;5024038;28;20041;-80
2023/12/01 03:55:15;;;;;;;44.95;22.58;;;-1.90;99.90;;;;;;5002795;28;20086;-79
2023/12/01 03:57:42;;;;;;;46.38;23.83;;;-1.90;99.90;;;;;;5023058;28;20044;-80
2023/12/01 04:00:13;;;;;;;45.70;22.38;;;-2.00;99.90;;;;;;5020777;28;20045;-80
2023/12/01 04:02:44;;;;;;;46.97;23.23;;;-1.90;99.90;;;;;;5023479;28;20749;-80
2023/12/01 04:05:18;;;;;;;46.38;23.83;;;-2.20;99.90;;;;;;5024573;28;20033;-80
2023/12/01 04:07:50;;;;;;;46.75;24.17;;;-2.00;99.90;;;;;;5024761;28;20060;-79
2023/12/01 04:10:16;;;;;;;49.70;21.92;;;-2.00;99.90;;;;;;5023315;28;20041;-80
2023/12/01 04:12:44;;;;;;;46.60;23.25;;;-2.10;99.90;;;;;;5009234;28;20120;-80
2023/12/01 04:15:18;;;;;;;47.35;23.30;;;-2.10;99.90;;;;;;5006751;28;20427;-80
2023/12/01 04:17:45;;;;;;;44.75;21.33;;;-2.40;99.90;;;;;;5026223;28;20041;-80
2023/12/01 04:20:25;;;;;;;41.45;20.02;;;-2.20;99.90;;;;;;5026175;28;20048;-80
2023/12/01 04:22:52;;;;;;;41.13;20.15;;;-2.40;99.90;;;;;;5009548;28;20622;-80
2023/12/01 04:25:18;;;;;;;44.53;22.13;;;-2.40;99.90;;;;;;5038216;28;20365;-80
2023/12/01 04:27:48;;;;;;;43.08;20.67;;;-2.60;99.90;;;;;;5013467;28;20039;-80
2023/12/01 04:30:15;;;;;;;47.78;22.27;;;-2.60;99.90;;;;;;5042202;28;20356;-79
2023/12/01 04:32:42;;;;;;;46.88;23.27;;;-2.60;99.90;;;;;;5004827;28;20036;-80
2023/12/01 04:35:10;;;;;;;42.83;20.25;;;-2.50;99.90;;;;;;5041294;28;20064;-80
2023/12/01 04:37:36;;;;;;;45.55;21.83;;;-2.70;99.90;;;;;;5009706;28;20065;-80
2023/12/01 04:40:03;;;;;;;40.03;20.98;;;-2.70;99.90;;;;;;5026047;28;20483;-80
2023/12/01 04:42:29;;;;;;;41.42;21.17;;;-2.60;99.90;;;;;;5009749;28;20056;-79
2023/12/01 04:44:55;;;;;;;44.75;21.17;;;-2.90;99.90;;;;;;5003166;28;20072;-79
2023/12/01 04:47:20;;;;;;;42.80;21.02;;;-2.70;99.90;;;;;;5027232;28;20072;-79
2023/12/01 04:49:46;;;;;;;42.10;20.85;;;-2.90;99.90;;;;;;5002702;28;20032;-79
2023/12/01 04:52:12;;;;;;;42.30;20.42;;;-2.70;99.90;;;;;;5015049;28;20110;-79
2023/12/01 04:54:38;;;;;;;40.80;20.48;;;-2.90;99.90;;;;;;5023061;28;20718;-79
2023/12/01 04:57:03;;;;;;;40.55;20.33;;;-3.00;99.90;;;;;;5008836;28;20048;-79
2023/12/01 04:59:29;;;;;;;41.20;20.38;;;-3.10;99.90;;;;;;5040873;28;20364;-79
2023/12/01 05:01:59;;;;;;;42.55;19.92;;;-3.00;99.90;;;;;;5050052;28;20657;-79
2023/12/01 05:04:25;;;;;;;36.10;18.65;;;-2.90;99.90;;;;;;5013879;28;20053;-79
2023/12/01 05:06:50;;;;;;;35.83;17.90;;;-3.00;99.90;;;;;;5029094;28;20037;-79
2023/12/01 05:09:21;;;;;;;36.85;18.23;;;-2.90;99.90;;;;;;5008839;28;20033;-80
2023/12/01 05:11:47;;;;;;;37.80;18.35;;;-3.20;99.90;;;;;;5042313;28;20041;-79
2023/12/01 05:14:13;;;;;;;40.60;19.58;;;-3.10;99.90;;;;;;5025113;28;20048;-79
2023/12/01 05:16:39;;;;;;;37.13;18.50;;;-3.10;99.90;;;;;;5008097;28;20045;-79
2023/12/01 05:19:05;;;;;;;39.45;18.83;;;-3.20;99.90;;;;;;5041768;28;20044;-79
2023/12/01 05:21:31;;;;;;;34.72;18.70;;;-3.30;99.90;;;;;;5023599;28;20049;-78
2023/12/01 05:23:58;;;;;;;35.78;18.13;;;-3.30;99.90;;;;;;5031949;28;20047;-78
2023/12/01 05:26:24;;;;;;;34.08;17.50;;;-3.30;99.90;;;;;;5019694;28;20041;-79
2023/12/01 05:28:50;;;;;;;33.55;17.42;;;-3.30;99.90;;;;;;5023300;28;20826;-79
2023/12/01 05:31:17;;;;;;;34.83;17.20;;;-3.20;99.90;;;;;;5013878;28;20040;-78
2023/12/01 05:33:46;;;;;;;33.28;16.02;;;-3.30;99.90;;;;;;5023487;28;20492;-78
2023/12/01 05:36:14;;;;;;;30.20;15.80;;;-3.30;99.90;;;;;;5026762;28;20183;-78
2023/12/01 05:38:42;;;;;;;31.67;16.23;;;-3.40;99.90;;;;;;5009480;28;20447;-79
2023/12/01 05:41:09;;;;;;;33.45;16.25;;;-3.30;99.90;;;;;;5029051;28;20371;-79
2023/12/01 05:43:35;;;;;;;32.50;16.92;;;-3.50;99.90;;;;;;5007985;28;20041;-78
2023/12/01 05:46:01;;;;;;;30.55;16.52;;;-3.30;99.90;;;;;;5014323;28;20507;-78
2023/12/01 05:48:27;;;;;;;29.52;14.88;;;-3.50;99.90;;;;;;5023831;28;20132;-78
2023/12/01 05:50:52;;;;;;;32.70;16.83;;;-3.50;99.90;;;;;;5025894;28;20076;-79
2023/12/01 05:53:18;;;;;;;31.67;16.35;;;-3.50;99.90;;;;;;5011316;28;20132;-78
2023/12/01 05:55:44;;;;;;;28.33;15.57;;;-3.50;99.90;;;;;;5012848;28;20040;-78
2023/12/01 05:58:13;;;;;;;29.83;15.15;;;-3.40;99.90;;;;;;5023478;28;20435;-78
2023/12/01 06:00:39;;;;;;;31.92;15.55;;;-3.60;99.90;;;;;;5011160;28;20372;-78
2023/12/01 06:03:07;;;;;;;30.92;16.38;;;-3.50;99.90;;;;;;5025157;28;20500;-79
2023/12/01 06:05:35;;;;;;;35.20;16.25;;;-3.60;99.90;;;;;;5040431;28;20075;-78
2023/12/01 06:08:02;;;;;;;30.60;14.43;;;-3.70;99.90;;;;;;5057417;28;20041;-78
2023/12/01 06:10:29;;;;;;;34.53;16.58;;;-3.70;99.90;;;;;;5021967;28;20397;-78
2023/12/01 06:12:55;;;;;;;31.23;16.23;;;-3.50;99.90;;;;;;5007381;28;20047;-79
2023/12/01 06:15:24;;;;;;;31.10;15.30;;;-3.60;99.90;;;;;;5021975;28;20045;-78
2023/12/01 06:17:51;;;;;;;30.35;15.45;;;-3.70;99.90;;;;;;5007499;28;20032;-79
2023/12/01 06:20:26;;;;;;;30.20;15.63;;;-3.80;99.90;;;;;;5023793;28;20049;-78
2023/12/01 06:22:56;;;;;;;33.65;16.48;;;-3.70;99.90;;;;;;5023973;28;20041;-78
2023/12/01 06:25:27;;;;;;;31.20;16.55;;;-3.60;99.90;;;;;;5007077;28;20045;-78
2023/12/01 06:27:56;;;;;;;32.60;16.05;;;-3.60;99.90;;;;;;5025815;28;20134;-79
2023/12/01 06:30:23;;;;;;;32.20;16.25;;;-3.70;99.90;;;;;;5039271;28;20045;-78
2023/12/01 06:32:50;;;;;;;34.60;16.67;;;-3.70;99.90;;;;;;5024662;28;20047;-79
2023/12/01 06:35:17;;;;;;;35.45;15.85;;;-3.90;99.90;;;;;;5027967;28;20045;-78
2023/12/01 06:37:44;;;;;;;34.42;16.83;;;-3.90;99.90;;;;;;5024310;28;20049;-78
2023/12/01 06:40:11;;;;;;;33.85;16.73;;;-3.70;99.90;;;;;;5019392;28;20053;-79
2023/12/01 06:42:44;;;;;;;33.03;16.60;;;-3.80;99.90;;;;;;5002518;28;20060;-78
2023/12/01 06:45:10;;;;;;;33.97;16.35;;;-4.00;99.90;;;;;;4999151;28;20038;-77
2023/12/01 06:47:38;;;;;;;33.00;17.13;;;-3.80;99.90;;;;;;5026749;28;20455;-79
2023/12/01 06:50:05;;;;;;;38.47;17.40;;;-3.70;99.90;;;;;;5040053;28;20037;-78
2023/12/01 06:52:32;;;;;;;32.83;16.67;;;-4.00;99.90;;;;;;5001856;28;20044;-79
2023/12/01 06:54:58;;;;;;;34.72;17.88;;;-3.90;99.90;;;;;;5023771;28;20144;-78
2023/12/01 06:57:24;;;;;;;31.23;15.57;;;-3.90;99.90;;;;;;5010057;28;20129;-80
2023/12/01 06:59:50;;;;;;;32.40;16.00;;;-3.80;99.90;;;;;;5004042;28;20048;-79
2023/12/01 07:02:17;;;;;;;36.08;17.85;;;-3.90;99.90;;;;;;5008293;28;20040;-79
2023/12/01 07:04:44;;;;;;;36.40;15.90;;;-3.80;99.90;;;;;;5040046;28;20053;-80
2023/12/01 07:07:12;;;;;;;38.30;16.83;;;-4.00;99.90;;;;;;5022538;28;20032;-80
2023/12/01 07:09:41;;;;;;;31.27;16.40;;;-3.80;99.90;;;;;;5022360;28;20120;-79
2023/12/01 07:12:07;;;;;;;31.38;15.90;;;-3.90;99.90;;;;;;5006827;28;20376;-80
2023/12/01 07:14:36;;;;;;;31.42;15.25;;;-3.90;99.90;;;;;;5020510;28;20059;-80
2023/12/01 07:17:05;;;;;;;35.08;16.10;;;-3.80;99.90;;;;;;5007407;28;20037;-79
2023/12/01 07:19:35;;;;;;;32.50;16.98;;;-4.00;99.90;;;;;;5040349;28;20048;-80
2023/12/01 07:22:01;;;;;;;35.35;16.42;;;-3.90;99.90;;;;;;5021957;28;20048;-81
2023/12/01 07:24:27;;;;;;;36.63;17.38;;;-3.80;99.90;;;;;;5005422;28;20157;-80
2023/12/01 07:26:53;;;;;;;36.25;17.10;;;-3.90;99.90;;;;;;4999971;28;20392;-79
2023/12/01 07:29:19;;;;;;;38.22;17.35;;;-3.90;99.90;;;;;;5005742;28;20060;-79
2023/12/01 07:31:45;;;;;;;38.60;17.33;;;-3.80;99.90;;;;;;5007279;28;20048;-79
2023/12/01 07:34:11;;;;;;;33.55;16.23;;;-3.80;99.90;;;;;;5023424;28;20567;-79
2023/12/01 07:36:38;;;;;;;35.97;16.77;;;-3.90;99.90;;;;;;5008327;28;20055;-80
2023/12/01 07:39:04;;;;;;;36.63;17.42;;;-4.00;99.90;;;;;;5021934;28;20041;-79
2023/12/01 07:41:31;;;;;;;35.30;17.55;;;-4.00;99.90;;;;;;4990997;28;20118;-79
2023/12/01 07:43:58;;;;;;;35.38;16.67;;;-3.90;99.90;;;;;;4986415;28;20043;-79
2023/12/01 07:46:23;;;;;;;37.97;18.88;;;-3.70;99.90;;;;;;5056279;28;20217;-80
2023/12/01 07:48:49;;;;;;;40.10;17.70;;;-4.10;99.90;;;;;;5020786;28;20154;-79
2023/12/01 07:51:17;;;;;;;34.67;16.88;;;-3.70;99.90;;;;;;5000521;28;20037;-79
2023/12/01 07:53:44;;;;;;;34.00;16.67;;;-3.90;99.90;;;;;;5019994;28;20045;-80
2023/12/01 07:56:11;;;;;;;34.25;16.55;;;-3.80;99.90;;;;;;4996740;28;20116;-79
2023/12/01 07:58:37;;;;;;;35.80;17.20;;;-3.70;99.90;;;;;;5038001;28;20049;-79
2023/12/01 08:01:03;;;;;;;37.50;16.75;;;-3.90;99.90;;;;;;5022174;28;20510;-78
2023/12/01 08:03:29;;;;;;;33.13;16.40;;;-3.80;99.90;;;;;;5022279;28;20459;-79
2023/12/01 08:05:54;;;;;;;37.95;18.10;;;-3.70;99.90;;;;;;5004034;28;20126;-79
2023/12/01 08:08:20;;;;;;;38.72;18.45;;;-3.70;99.90;;;;;;5007202;28;20041;-79
2023/12/01 08:10:46;;;;;;;37.00;17.80;;;-3.70;99.90;;;;;;5008651;28;20041;-79
2023/12/01 08:13:11;;;;;;;35.75;16.95;;;-3.60;99.90;;;;;;5023183;28;20420;-80
2023/12/01 08:15:37;;;;;;;35.85;17.50;;;-3.40;99.90;;;;;;5032195;28;20044;-79
2023/12/01 08:18:04;;;;;;;32.78;16.90;;;-3.40;99.90;;;;;;5039564;28;20555;-79
2023/12/01 08:20:30;;;;;;;37.45;18.20;;;-3.60;99.90;;;;;;5006259;28;20167;-79
2023/12/01 08:22:57;;;;;;;37.72;18.15;;;-3.40;99.90;;;;;;5008520;28;20131;-79
2023/12/01 08:25:23;;;;;;;36.83;17.80;;;-3.50;99.90;;;;;;5021083;28;20045;-79
2023/12/01 08:27:51;;;;;;;35.47;17.63;;;-3.50;99.90;;;;;;5023935;28;20035;-79
2023/12/01 08:30:17;;;;;;;39.03;18.88;;;-3.40;99.90;;;;;;5008615;28;20448;-80
2023/12/01 08:32:43;;;;;;;38.10;17.55;;;-3.30;99.90;;;;;;5025541;28;20120;-79
2023/12/01 08:35:09;;;;;;;36.70;18.52;;;-3.40;99.90;;;;;;5027883;28;20040;-79
2023/12/01 08:37:34;;;;;;;33.95;18.17;;;-3.40;99.90;;;;;;5009089;28;20052;-78
2023/12/01 08:40:00;;;;;;;39.08;18.52;;;-3.10;99.90;;;;;;5027424;28;20352;-79
2023/12/01 08:42:26;;;;;;;35.15;17.40;;;-3.20;99.90;;;;;;5042008;28;20085;-79
2023/12/01 08:44:52;;;;;;;42.47;18.98;;;-3.10;99.90;;;;;;4999881;28;20072;-79
2023/12/01 08:47:21;;;;;;;37.45;19.45;;;-3.10;99.90;;;;;;5009564;28;20367;-79
2023/12/01 08:49:49;;;;;;;37.72;20.08;;;-2.90;99.90;;;;;;5007031;28;20291;-78
2023/12/01 08:52:15;;;;;;;34.28;17.95;;;-3.10;99.90;;;;;;5018411;28;20514;-79
2023/12/01 08:54:41;;;;;;;39.60;19.70;;;-2.90;99.90;;;;;;5057281;28;20045;-79
2023/12/01 08:57:06;;;;;;;43.60;21.48;;;-2.80;99.90;;;;;;5038444;28;20107;-79
2023/12/01 08:59:32;;;;;;;38.10;20.88;;;-3.00;99.90;;;;;;5022161;28;20041;-79
2023/12/01 09:01:58;;;;;;;37.00;18.88;;;-2.80;99.90;;;;;;5025208;28;20045;-80
2023/12/01 09:04:24;;;;;;;39.13;19.80;;;-2.80;99.90;;;;;;5026073;28;20145;-79
2023/12/01 09:06:49;;;;;;;38.85;20.08;;;-2.70;99.90;;;;;;5001992;28;20669;-79
2023/12/01 09:09:15;;;;;;;42.22;20.45;;;-2.60;99.90;;;;;;5027759;28;20453;-79
2023/12/01 09:11:41;;;;;;;39.33;20.60;;;-2.20;99.90;;;;;;5025260;28;20209;-79
2023/12/01 09:14:06;;;;;;;38.55;20.63;;;-2.20;99.90;;;;;;5023065;28;20037;-79
2023/12/01 09:16:32;;;;;;;40.10;21.42;;;-2.00;99.90;;;;;;5008980;28;20484;-79
2023/12/01 09:18:58;;;;;;;43.30;21.15;;;-2.20;99.90;;;;;;5025055;28;20048;-79
2023/12/01 09:21:24;;;;;;;36.70;20.45;;;-2.10;99.90;;;;;;5027262;28;20040;-80
2023/12/01 09:23:50;;;;;;;39.38;19.13;;;-2.10;99.90;;;;;;5024203;28;20353;-79
2023/12/01 09:26:17;;;;;;;38.72;20.52;;;-2.30;99.90;;;;;;5024018;28;20048;-79
2023/12/01 09:28:43;;;;;;;36.83;20.05;;;-2.10;99.90;;;;;;4996744;28;20044;-79
2023/12/01 09:31:10;;;;;;;36.05;19.50;;;-2.10;99.90;;;;;;5008280;28;20037;-79
2023/12/01 09:33:37;;;;;;;35.58;20.67;;;-2.10;99.90;;;;;;5006952;28;20041;-79
2023/12/01 09:36:04;;;;;;;37.40;18.88;;;-1.90;99.90;;;;;;5057504;28;20036;-79
2023/12/01 09:38:31;;;;;;;34.72;19.02;;;-1.80;99.90;;;;;;5017113;28;20041;-79
2023/12/01 09:40:57;;;;;;;35.65;19.10;;;-1.70;99.90;;;;;;5006939;28;20060;-79
2023/12/01 09:43:23;;;;;;;35.65;19.50;;;-1.80;99.90;;;;;;5008837;28;20064;-79
2023/12/01 09:45:50;;;;;;;34.70;18.85;;;-1.80;99.90;;;;;;5024404;28;20079;-80
2023/12/01 09:48:19;;;;;;;35.58;20.17;;;-1.60;99.90;;;;;;5009119;28;20044;-80
2023/12/01 09:50:49;;;;;;;35.00;18.15;;;-1.60;99.90;;;;;;5007147;28;20037;-80
2023/12/01 09:53:16;;;;;;;34.55;19.00;;;-1.60;99.90;;;;;;5042330;28;20548;-81
2023/12/01 09:55:42;;;;;;;36.08;19.95;;;-1.50;99.90;;;;;;5007718;28;20132;-81
2023/12/01 09:58:10;;;;;;;37.13;20.10;;;-1.50;99.90;;;;;;5024867;28;20040;-81
2023/12/01 10:00:35;;;;;;;36.70;20.23;;;-1.50;99.90;;;;;;5019794;28;20116;-80
2023/12/01 10:03:01;;;;;;;32.28;19.40;;;-1.60;99.90;;;;;;5034343;28;20177;-80
2023/12/01 10:05:32;;;;;;;37.05;19.25;;;-1.40;99.90;;;;;;5006668;28;20053;-81
2023/12/01 10:07:58;;;;;;;34.10;18.88;;;-1.40;99.90;;;;;;5008947;28;20065;-80
2023/12/01 10:10:26;;;;;;;34.80;18.88;;;-1.40;99.90;;;;;;5004581;28;20206;-81
2023/12/01 10:13:04;;;;;;;33.75;19.23;;;-1.40;99.90;;;;;;5056788;28;20048;-81
2023/12/01 10:15:31;;;;;;;34.80;19.60;;;-1.30;99.90;;;;;;5044177;28;20095;-81
2023/12/01 10:18:11;;;;;;;36.10;19.60;;;-1.00;99.90;;;;;;5039344;28;20029;-81
2023/12/01 10:20:39;;;;;;;36.30;19.50;;;-1.10;99.90;;;;;;5001717;28;20124;-81
2023/12/01 10:23:36;;;;;;;35.50;20.15;;;-1.10;99.90;;;;;;5024934;28;20106;-80
2023/12/01 10:26:03;;;;;;;32.45;18.75;;;-0.70;99.90;;;;;;5007396;28;20084;-81
2023/12/01 10:28:41;;;;;;;35.88;20.00;;;-0.60;99.90;;;;;;5006023;28;20052;-81
2023/12/01 10:31:07;;;;;;;41.25;20.55;;;-0.40;99.90;;;;;;5007450;28;20033;-81
2023/12/01 10:33:35;;;;;;;37.60;20.60;;;-0.20;99.90;;;;;;5005957;28;20052;-81
2023/12/01 10:36:05;;;;;;;37.95;20.60;;;0.10;99.90;;;;;;5009131;28;20072;-82
2023/12/01 10:38:36;;;;;;;37.47;21.55;;;-0.10;99.90;;;;;;4997606;28;20743;-81
2023/12/01 10:41:03;;;;;;;35.15;19.88;;;0.00;99.90;;;;;;4999472;28;20057;-81
2023/12/01 10:43:30;;;;;;;34.05;19.30;;;0.20;99.90;;;;;;5016272;28;20349;-82
2023/12/01 10:46:02;;;;;;;34.78;20.10;;;-0.10;99.90;;;;;;5005878;28;20033;-81
2023/12/01 10:48:29;;;;;;;35.47;20.58;;;0.00;99.90;;;;;;5006478;28;20447;-82
2023/12/01 10:50:55;;;;;;;32.72;19.63;;;0.20;99.90;;;;;;5005935;28;20116;-81
2023/12/01 10:53:26;;;;;;;36.80;20.80;;;0.10;99.90;;;;;;5038263;28;20222;-81
2023/12/01 10:55:54;;;;;;;33.33;20.13;;;0.20;99.90;;;;;;5021178;28;20158;-82
2023/12/01 10:58:22;;;;;;;35.97;20.45;;;0.40;99.90;;;;;;5021174;28;20360;-82
2023/12/01 11:00:49;;;;;;;33.63;19.90;;;0.50;99.90;;;;;;5017174;28;20404;-82
2023/12/01 11:03:19;;;;;;;35.28;19.65;;;0.40;99.90;;;;;;5011005;28;20389;-82
2023/12/01 11:05:51;;;;;;;33.50;20.40;;;0.50;99.90;;;;;;5008463;28;20041;-82
2023/12/01 11:08:35;;;;;;;35.08;19.85;;;0.70;99.90;;;;;;5021834;28;20155;-82
2023/12/01 11:11:12;;;;;;;31.15;19.30;;;0.50;99.90;;;;;;4996450;28;20037;-82
2023/12/01 11:14:13;;;;;;;33.35;20.10;;;0.80;99.90;;;;;;5003343;28;20045;-82
2023/12/01 11:16:39;;;;;;;31.13;18.85;;;0.80;99.90;;;;;;5010915;28;20056;-81
2023/12/01 11:19:08;;;;;;;30.60;19.00;;;0.70;99.90;;;;;;5023444;28;20099;-82
2023/12/01 11:21:34;;;;;;;31.38;19.50;;;0.70;99.90;;;;;;5010977;28;20099;-82
2023/12/01 11:24:25;;;;;;;30.52;19.15;;;0.80;99.90;;;;;;5007113;28;20037;-82
2023/12/01 11:26:52;;;;;;;33.63;20.50;;;0.80;99.90;;;;;;5006371;28;20037;-81
2023/12/01 11:29:28;;;;;;;34.45;19.90;;;0.80;99.90;;;;;;5005115;28;20647;-82
2023/12/01 11:31:57;;;;;;;32.17;18.73;;;0.90;99.90;;;;;;5014011;28;20037;-82
2023/12/01 11:34:24;;;;;;;31.10;19.65;;;0.80;99.90;;;;;;4995802;28;20046;-82
2023/12/01 11:36:50;;;;;;;32.80;19.73;;;1.00;99.90;;;;;;4996873;28;20052;-82
2023/12/01 11:39:17;;;;;;;30.88;19.15;;;0.80;99.90;;;;;;5022665;28;20074;-81
2023/12/01 11:41:49;;;;;;;31.70;18.77;;;0.80;99.90;;;;;;5008920;28;20045;-82
2023/12/01 11:44:27;;;;;;;30.15;19.92;;;0.90;99.90;;;;;;5005051;28;20115;-81
2023/12/01 11:47:04;;;;;;;33.63;19.92;;;1.00;99.90;;;;;;5000418;28;20041;-81
2023/12/01 11:49:35;;;;;;;30.55;19.30;;;0.90;99.90;;;;;;5022705;28;20041;-82
2023/12/01 11:52:06;;;;;;;34.95;20.80;;;0.80;99.90;;;;;;4938406;28;20595;-82
2023/12/01 11:54:33;;;;;;;35.47;20.88;;;0.80;99.90;;;;;;4999742;28;20045;-82
2023/12/01 11:56:59;;;;;;;35.22;20.70;;;0.90;99.90;;;;;;5021144;28;20051;-82
2023/12/01 11:59:25;;;;;;;31.05;20.88;;;0.90;99.90;;;;;;5002976;28;20035;-82
2023/12/01 12:01:56;;;;;;;31.20;18.95;;;0.90;99.90;;;;;;5043585;28;20080;-81
2023/12/01 12:04:25;;;;;;;32.47;19.73;;;0.90;99.90;;;;;;5049063;28;20045;-82
2023/12/01 12:06:52;;;;;;;32.92;20.23;;;1.10;99.90;;;;;;5027493;28;20069;-81
2023/12/01 12:09:18;;;;;;;30.50;18.88;;;1.10;99.90;;;;;;5036906;28;20091;-82
2023/12/01 12:11:53;;;;;;;33.55;20.25;;;1.10;99.90;;;;;;5000789;28;20029;-81
2023/12/01 12:14:27;;;;;;;30.30;18.23;;;1.00;99.90;;;;;;4999689;28;20052;-81
2023/12/01 12:16:53;;;;;;;31.80;19.63;;;1.00;99.90;;;;;;5003805;28;20419;-81
2023/12/01 12:19:20;;;;;;;31.83;19.70;;;1.00;99.90;;;;;;5007451;28;20041;-81
2023/12/01 12:21:47;;;;;;;31.63;18.80;;;0.90;99.90;;;;;;5019147;28;20576;-81
2023/12/01 12:24:13;;;;;;;28.40;17.73;;;1.00;99.90;;;;;;5009448;28;20073;-81
2023/12/01 12:26:39;;;;;;;29.00;18.98;;;1.10;99.90;;;;;;5027038;28;20656;-81
2023/12/01 12:29:06;;;;;;;29.83;18.42;;;1.20;99.90;;;;;;5003669;28;20029;-82
2023/12/01 12:31:35;;;;;;;31.08;17.98;;;1.30;99.90;;;;;;5024862;28;20040;-81